Latest Coastal Weather Observations for Friendly Beaches

IDT60701

Issued at 5:21 am EST Sunday 19 April 2015 (issued every 10 minutes, with the page automatically refreshed every 10 minutes)

About coastal observations | Map of coastal stations | Coastal observations for TAS | Marine services | Other Formats
Station Details ID: 092114 Name: FRIENDLY BEACHES Lat: -42.00 Lon: 148.28 Height: 55.0 m
Data from the previous 72 hours. | See also: Recent months at Friendly Beaches
Date/Time
EST
Temp

°C
Wind Pressure Rain
since 9am
mm
Weather Cloud Vis
km
Sea
Height
m
Swell
Dir
 
Speed
knots
Gust
knots
hPa Trend Height
m
Period
s
Dir
19/05:00am 9.3 SW 11 19 1015.9 - 4.0 - - - - - - -
19/04:30am 8.8 SW 7 11 1014.8 - 4.0 - - - - - - -
19/04:00am 8.3 WSW 6 11 1013.9 - 4.0 - - - - - - -
19/03:30am 8.5 WSW 7 10 1013.1 - 4.0 - - - - - - -
19/03:00am 8.4 WSW 6 9 1012.6 - 4.0 - - - - - - -
19/02:30am 8.4 W 7 10 1012.2 - 4.0 - - - - - - -
19/02:00am 8.4 WSW 6 8 1012.1 - 4.0 - - - - - - -
19/01:30am 8.3 WSW 5 7 1011.9 - 4.0 - - - - - - -
19/01:00am 8.9 WSW 8 12 1011.1 - 4.0 - - - - - - -
19/12:30am 9.3 W 7 9 1011.0 - 4.0 - - - - - - -
19/12:00am 9.1 SW 6 10 1011.0 - 4.0 - - - - - - -
 
Date/Time
EST
Temp

°C
Wind Pressure Rain
since 9am
mm
Weather Cloud Vis
km
Sea
Height
m
Swell
Dir
 
Speed
knots
Gust
knots
hPa Trend Height
m
Period
s
Dir
18/11:30pm 9.4 WSW 7 10 1010.5 - 4.0 - - - - - - -
18/11:00pm 9.7 WSW 8 13 1010.0 - 4.0 - - - - - - -
18/10:30pm 10.2 WSW 6 10 1009.6 - 4.0 - - - - - - -
18/10:00pm 10.4 W 6 11 1009.4 - 4.0 - - - - - - -
18/09:30pm 10.1 WNW 4 5 1008.9 - 4.0 - - - - - - -
18/09:00pm 10.1 SSW 3 4 1008.6 - 4.0 Recent precip. - - - - - -
18/08:30pm 10.4 SSW 3 3 1007.5 - 4.0 - - - - - - -
18/08:00pm 10.5 WNW 3 4 1008.1 - 3.6 - - - - - - -
18/07:30pm 10.5 WSW 5 7 1007.6 - 2.0 - - - - - - -
18/07:00pm 10.8 W 6 10 1007.3 - 0.8 - - - - - - -
18/06:30pm 11.5 SW 9 15 1006.5 - 0.0 - - - - - - -
18/06:12pm 14.3 WSW 12 25 1005.8 - 0.0 - - - - - - -
18/06:00pm 16.9 WNW 5 11 1005.1 - 0.0 - - - - - - -
18/05:30pm 17.4 WNW 6 10 1004.9 - 0.0 - - - - - - -
18/05:00pm 17.8 WNW 9 21 1004.3 - 0.0 - - - - - - -
18/04:30pm 18.1 WNW 6 12 1004.0 - 0.0 - - - - - - -
18/04:00pm 18.8 WNW 6 13 1003.6 - 0.0 - - - - - - -
18/03:30pm 20.0 NW 9 16 1003.4 - 0.0 - - - - - - -
18/03:00pm 19.7 NW 10 19 1003.7 - 0.0 - - - - - - -
18/02:30pm 19.4 WNW 15 30 1003.8 - 0.0 - - - - - - -
18/02:00pm 19.7 WNW 11 19 1003.8 - 0.0 - - - - - - -
18/01:30pm 20.0 WNW 13 21 1003.7 - 0.0 - - - - - - -
18/01:00pm 20.6 WNW 12 22 1003.6 - 0.0 - - - - - - -
18/12:30pm 20.5 NW 14 28 1003.7 - 0.0 - - - - - - -
18/12:21pm 20.1 NW 15 28 1003.7 - 0.0 - - - - - - -
18/12:00pm 20.2 NW 14 25 1004.1 - 0.0 - - - - - - -
18/11:57am 19.9 NW 15 25 1004.1 - 0.0 - - - - - - -
18/11:30am 20.2 NW 10 18 1004.8 - 0.0 - - - - - - -
18/11:00am 19.3 W 10 16 1005.4 - 0.0 - - - - - - -
18/10:30am 18.6 WNW 12 19 1005.4 - 0.0 - - - - - - -
18/10:00am 18.3 NW 7 16 1006.1 - 0.0 - - - - - - -
18/09:30am 17.5 WNW 5 11 1006.5 - 0.0 - - - - - - -
18/09:00am 16.6 NW 6 11 1007.0 - 0.0 - - - - - - -
18/08:30am 15.9 N 2 5 1007.2 - 0.0 - - - - - - -
18/08:00am 15.3 N 5 11 1007.1 - 0.0 - - - - - - -
18/07:30am 14.4 NNW 3 7 1007.0 - 0.0 - - - - - - -
18/07:00am 14.2 NNW 5 8 1006.7 - 0.0 - - - - - - -
18/06:30am 14.7 NW 6 9 1006.9 - 0.0 - - - - - - -
18/06:00am 14.9 NW 8 12 1006.8 - 0.0 - - - - - - -
18/05:30am 14.8 WNW 6 10 1006.7 - 0.0 - - - - - - -
18/05:00am 15.4 NW 11 19 1006.4 - 0.0 - - - - - - -
18/04:30am 13.9 NW 4 7 1006.7 - 0.0 - - - - - - -
18/04:00am 13.4 NNE 4 7 1006.9 - 0.0 - - - - - - -
18/03:30am 12.8 NNE 5 8 1007.4 - 0.0 - - - - - - -
18/03:00am 13.0 NE 4 6 1008.2 - 0.0 - - - - - - -
18/02:30am 13.6 N 7 15 1009.1 - 0.0 - - - - - - -
18/02:00am 13.3 N 6 8 1009.6 - 0.0 - - - - - - -
18/01:30am 13.6 N 4 7 1010.1 - 0.0 - - - - - - -
18/01:00am 14.1 NNW 5 9 1010.6 - 0.0 - - - - - - -
18/12:30am 13.5 N 3 5 1011.3 - 0.0 - - - - - - -
18/12:00am 13.5 NW 5 8 1011.4 - 0.0 - - - - - - -
 
Date/Time
EST
Temp

°C
Wind Pressure Rain
since 9am
mm
Weather Cloud Vis
km
Sea
Height
m
Swell
Dir
 
Speed
knots
Gust
knots
hPa Trend Height
m
Period
s
Dir
17/11:30pm 13.4 NNW 4 7 1011.9 - 0.0 - - - - - - -
17/11:00pm 13.6 N 7 11 1012.5 - 0.0 - - - - - - -
17/10:30pm 13.6 NNW 8 13 1012.8 - 0.0 - - - - - - -
17/10:00pm 13.3 WNW 4 7 1013.1 - 0.0 - - - - - - -
17/09:30pm 13.2 NW 3 5 1013.6 - 0.0 - - - - - - -
17/09:00pm 13.4 N 4 6 1013.8 - 0.0 - - - - - - -
17/08:30pm 14.2 WNW 6 10 1013.8 - 0.0 - - - - - - -
17/08:00pm 14.1 NW 5 7 1014.1 - 0.0 - - - - - - -
17/07:30pm 14.4 NW 6 9 1014.2 - 0.0 - - - - - - -
17/07:00pm 14.7 NW 6 9 1014.4 - 0.0 - - - - - - -
17/06:30pm 15.2 NW 8 10 1014.1 - 0.0 - - - - - - -
17/06:00pm 14.7 WNW 5 8 1014.2 - 0.0 - - - - - - -
17/05:30pm 15.0 NW 4 4 1014.0 - 0.0 - - - - - - -
17/05:00pm 16.6 NNW 4 6 1014.1 - 0.0 - - - - - - -
17/04:30pm 17.2 N 7 10 1014.2 - 0.0 - - - - - - -
17/04:00pm 17.3 N 7 12 1014.5 - 0.0 - - - - - - -
17/03:30pm 18.3 NNE 8 11 1014.8 - 0.0 - - - - - - -
17/03:00pm 18.5 NNE 8 11 1014.9 - 0.0 - - - - - - -
17/02:30pm 18.0 NE 8 12 1015.2 - 0.0 - - - - - - -
17/02:00pm 18.1 NNE 10 13 1015.6 - 0.0 - - - - - - -
17/01:30pm 18.0 NE 9 13 1016.2 - 0.0 - - - - - - -
17/01:00pm 19.0 NE 7 10 1017.0 - 0.0 - - - - - - -
17/12:30pm 19.0 NE 7 10 1017.7 - 0.0 - - - - - - -
17/12:00pm 18.5 NNE 8 12 1018.4 - 0.0 - - - - - - -
17/11:30am 18.9 NE 8 11 1019.0 - 0.0 - - - - - - -
17/11:00am 19.0 NNE 7 13 1019.4 - 0.0 - - - - - - -
17/10:30am 18.5 N 5 8 1019.9 - 0.0 - - - - - - -
17/10:00am 17.4 NNW 4 9 1020.2 - 0.0 - - - - - - -
17/09:30am 15.7 W 5 7 1020.8 - 0.0 - - - - - - -
17/09:00am 14.6 WNW 5 7 1021.1 - 0.0 - - - - - - -
17/08:30am 13.3 WNW 4 6 1021.3 - 0.0 - - - - - - -
17/08:00am 12.1 WNW 5 7 1021.1 - 0.0 - - - - - - -
17/07:30am 11.4 WNW 6 9 1021.0 - 0.0 - - - - - - -
17/07:00am 10.2 WNW 6 8 1020.8 - 0.0 - - - - - - -
17/06:30am 10.5 WNW 4 6 1020.9 - 0.0 - - - - - - -
17/06:00am 10.9 NW 6 12 1020.6 - 0.0 - - - - - - -
17/05:30am 9.7 WSW 3 6 1020.6 - 0.0 - - - - - - -
17/05:00am 9.5 SW 2 5 1020.4 - 0.0 - - - - - - -
17/04:30am 9.8 W 3 5 1020.7 - 0.0 - - - - - - -
17/04:00am 10.5 WNW 5 9 1020.2 - 0.0 - - - - - - -
17/03:30am 10.4 W 4 7 1020.1 - 0.0 - - - - - - -
17/03:00am 10.5 SW 4 8 1020.1 - 0.0 - - - - - - -
17/02:30am 10.4 W 4 8 1020.2 - 0.0 - - - - - - -
17/02:00am 10.0 W 3 5 1020.4 - 0.0 - - - - - - -
17/01:30am 10.7 W 4 7 1020.7 - 0.0 - - - - - - -
17/01:00am 11.3 WSW 4 6 1020.7 - 0.0 - - - - - - -
17/12:30am 11.2 WNW 3 5 1020.7 - 0.0 - - - - - - -
17/12:00am 11.8 W 2 3 1020.9 - 0.0 - - - - - - -
 
Date/Time
EST
Temp

°C
Wind Pressure Rain
since 9am
mm
Weather Cloud Vis
km
Sea
Height
m
Swell
Dir
 
Speed
knots
Gust
knots
hPa Trend Height
m
Period
s
Dir
16/11:30pm 12.9 NNW 3 6 1020.9 - 0.0 - - - - - - -
16/11:00pm 13.4 NNW 6 10 1021.0 - 0.0 - - - - - - -
16/10:30pm 13.3 NW 6 10 1021.3 - 0.0 - - - - - - -
16/10:00pm 13.0 NW 6 10 1021.3 - 0.0 - - - - - - -
16/09:30pm 12.8 W 3 5 1021.6 - 0.0 - - - - - - -
16/09:00pm 13.2 W 3 5 1021.7 - 0.0 - - - - - - -
16/08:30pm 13.3 W 5 8 1021.4 - 0.0 - - - - - - -
16/08:00pm 13.1 WNW 5 8 1021.2 - 0.0 - - - - - - -
16/07:30pm 13.0 WNW 4 6 1021.0 - 0.0 - - - - - - -
16/07:00pm 12.9 WNW 5 8 1020.8 - 0.0 - - - - - - -
16/06:30pm 13.5 W 4 5 1020.3 - 0.0 - - - - - - -
16/06:00pm 14.4 WNW 2 6 1019.7 - 0.0 - - - - - - -
16/05:30pm 14.6 CALM 0 2 1019.4 - 0.0 - - - - - - -
16/05:00pm 16.5 SSE 2 9 1019.2 - 0.0 - - - - - - -
16/04:30pm 17.3 S 1 5 1019.0 - 0.0 - - - - - - -
16/04:00pm 18.0 SSW 8 15 1018.7 - 0.0 - - - - - - -
16/03:30pm 19.0 S 9 13 1018.1 - 0.0 - - - - - - -
16/03:00pm 19.7 SSE 7 11 1018.3 - 0.0 - - - - - - -
16/02:30pm 19.9 SSW 7 10 1018.0 - 0.0 - - - - - - -
16/02:00pm 19.9 SSW 5 10 1017.8 - 0.0 - - - - - - -
16/01:30pm 19.9 S 6 10 1018.0 - 0.0 - - - - - - -
16/01:00pm 19.6 WSW 7 11 1017.9 - 0.0 - - - - - - -
16/12:30pm 19.1 WSW 7 12 1018.3 - 0.0 - - - - - - -
16/12:00pm 18.6 WSW 8 12 1018.4 - 0.0 - - - - - - -
16/11:30am 18.9 WSW 6 12 1018.4 - 0.0 - - - - - - -
16/11:00am 18.7 WSW 7 12 1018.4 - 0.0 - - - - - - -
16/10:30am 18.4 SW 7 13 1018.3 - 0.0 - - - - - - -
16/10:00am 17.7 SW 10 18 1018.3 - 0.0 - - - - - - -
16/09:30am 17.4 SW 7 13 1018.4 - 0.0 - - - - - - -
16/09:00am 16.0 WSW 6 11 1018.2 - 0.0 - - - - - - -
16/08:30am 14.7 WSW 5 8 1018.0 - 0.0 - - - - - - -
16/08:00am 14.4 WSW 5 8 1017.5 - 0.0 - - - - - - -
16/07:30am 13.6 WSW 3 5 1017.0 - 0.0 - - - - - - -
16/07:00am 13.7 W 3 5 1016.4 - 0.0 - - - - - - -
16/06:30am 14.3 W 6 8 1015.7 - 0.0 - - - - - - -
16/06:00am 15.2 WNW 6 9 1015.2 - 0.0 - - - - - - -
16/05:30am 14.9 NW 5 7 1015.0 - 0.0 - - - - - - -

Other Formats:

Comma delimited format used in spreadsheet applications
http://www.bom.gov.au/fwo/IDT60701/IDT60701.94987.axf

JavaScript Object Notation format (JSON) in row-major order
http://www.bom.gov.au/fwo/IDT60701/IDT60701.94987.json